createdAt,value
2018-10-04T00:01:23.076Z,23.73
2018-10-04T00:03:49.724Z,23.75
2018-10-04T00:06:16.379Z,23.70
2018-10-04T00:08:43.062Z,23.71
2018-10-04T00:11:09.674Z,23.70
2018-10-04T00:13:37.527Z,23.66
2018-10-04T00:16:02.975Z,23.67
2018-10-04T00:18:29.670Z,23.65
2018-10-04T00:20:56.614Z,23.65
2018-10-04T00:23:24.642Z,23.66
2018-10-04T00:25:49.941Z,23.63
2018-10-04T00:28:16.604Z,23.62
2018-10-04T00:30:43.297Z,23.58
2018-10-04T00:33:10.009Z,23.58
2018-10-04T00:35:36.708Z,23.59
2018-10-04T00:38:03.358Z,23.56
2018-10-04T00:40:30.049Z,23.56
2018-10-04T00:42:56.673Z,23.55
2018-10-04T00:45:23.366Z,23.52
2018-10-04T00:47:50.073Z,23.49
2018-10-04T00:50:18.335Z,23.48
2018-10-04T00:52:43.376Z,23.50
2018-10-04T00:55:10.074Z,23.48
2018-10-04T00:57:36.689Z,23.45
2018-10-04T01:00:03.409Z,23.46
2018-10-04T01:02:32.320Z,23.46
2018-10-04T01:04:56.828Z,23.42
2018-10-04T01:07:23.439Z,23.43
2018-10-04T01:09:50.169Z,23.41
2018-10-04T01:12:16.771Z,23.40
2018-10-04T01:14:43.411Z,23.39
2018-10-04T01:17:10.070Z,23.37
2018-10-04T01:19:39.842Z,23.36
2018-10-04T01:22:06.529Z,23.34
2018-10-04T01:24:33.283Z,23.36
2018-10-04T01:27:01.840Z,23.35
2018-10-04T01:29:26.637Z,23.30
2018-10-04T01:31:53.335Z,23.31
2018-10-04T01:34:23.069Z,23.31
2018-10-04T01:36:49.729Z,23.27
2018-10-04T01:39:16.366Z,23.29
2018-10-04T01:41:43.056Z,23.28
2018-10-04T01:44:09.793Z,23.26
2018-10-04T01:46:36.453Z,23.25
2018-10-04T01:49:03.136Z,23.26
2018-10-04T01:51:29.754Z,23.25
2018-10-04T01:53:56.496Z,23.22
2018-10-04T01:56:23.145Z,23.21
2018-10-04T01:58:50.890Z,23.22
2018-10-04T02:01:17.499Z,23.17
2018-10-04T02:03:44.138Z,23.15
2018-10-04T02:06:10.889Z,23.16
2018-10-04T02:08:37.536Z,23.15
2018-10-04T02:11:04.178Z,23.15
2018-10-04T02:13:32.640Z,23.12
2018-10-04T02:15:59.376Z,23.13
2018-10-04T02:18:26.074Z,23.12
2018-10-04T02:20:52.682Z,23.08
2018-10-04T02:23:19.409Z,23.10
2018-10-04T02:25:46.028Z,23.07
2018-10-04T02:28:12.672Z,23.06
2018-10-04T02:30:39.440Z,23.05
2018-10-04T02:33:06.219Z,23.05
2018-10-04T02:35:32.854Z,23.04
2018-10-04T02:37:59.739Z,23.02
2018-10-04T02:40:26.465Z,23.01
2018-10-04T02:42:53.149Z,22.98
2018-10-04T02:45:19.785Z,22.98
2018-10-04T02:47:46.622Z,22.96
2018-10-04T02:50:15.827Z,22.98
2018-10-04T02:52:42.438Z,22.97
2018-10-04T02:55:09.143Z,22.95
2018-10-04T02:57:35.786Z,22.93
2018-10-04T03:00:02.437Z,22.92
2018-10-04T03:02:29.181Z,22.92
2018-10-04T03:04:55.869Z,22.92
2018-10-04T03:07:22.935Z,22.88
2018-10-04T03:09:49.709Z,22.89
2018-10-04T03:12:16.327Z,22.74
2018-10-04T03:14:43.052Z,22.53
2018-10-04T03:17:09.809Z,22.48
2018-10-04T03:19:36.548Z,22.28
2018-10-04T03:22:03.260Z,22.38
2018-10-04T03:24:29.909Z,22.31
2018-10-04T03:26:56.585Z,22.20
2018-10-04T03:29:23.242Z,22.13
2018-10-04T03:31:52.913Z,22.24
2018-10-04T03:34:19.644Z,22.38
2018-10-04T03:36:46.281Z,22.68
2018-10-04T03:39:12.970Z,22.84
2018-10-04T03:41:39.622Z,23.01
2018-10-04T03:44:06.298Z,23.16
2018-10-04T03:46:34.193Z,23.34
2018-10-04T03:48:59.665Z,23.43
2018-10-04T03:51:26.627Z,23.50
2018-10-04T03:53:53.279Z,23.61
2018-10-04T03:56:20.004Z,23.68
2018-10-04T03:58:46.692Z,23.73
2018-10-04T04:01:13.340Z,23.86
2018-10-04T04:03:40.018Z,23.91
2018-10-04T04:06:08.938Z,24.06
2018-10-04T04:08:35.638Z,24.03
2018-10-04T04:11:02.325Z,24.09
2018-10-04T04:13:28.974Z,24.15
2018-10-04T04:15:55.777Z,24.25
2018-10-04T04:18:22.433Z,24.18
2018-10-04T04:20:49.122Z,24.11
2018-10-04T04:23:15.757Z,24.11
2018-10-04T04:25:42.406Z,24.10
2018-10-04T04:28:09.057Z,24.12
2018-10-04T04:30:35.922Z,24.15
2018-10-04T04:33:02.526Z,24.28
2018-10-04T04:35:29.173Z,24.29
2018-10-04T04:38:00.627Z,24.26
2018-10-04T04:40:22.499Z,24.30
2018-10-04T04:42:49.155Z,24.34
2018-10-04T04:45:15.804Z,24.38
2018-10-04T04:47:42.467Z,24.43
2018-10-04T04:50:09.197Z,24.45
2018-10-04T04:52:36.028Z,24.51
2018-10-04T04:55:02.772Z,24.57
2018-10-04T04:57:32.753Z,24.66
2018-10-04T05:00:00.144Z,24.71
2018-10-04T05:02:26.883Z,24.83
2018-10-04T05:04:53.533Z,24.92
2018-10-04T05:07:20.336Z,25.03
2018-10-04T05:09:50.258Z,25.06
2018-10-04T05:12:17.017Z,25.20
2018-10-04T05:14:43.690Z,25.33
2018-10-04T05:17:10.519Z,25.46
2018-10-04T05:19:37.279Z,25.48
2018-10-04T05:22:04.029Z,25.50
2018-10-04T05:24:30.638Z,25.55
2018-10-04T05:26:57.456Z,25.61
2018-10-04T05:29:24.248Z,25.72
2018-10-04T05:31:50.886Z,25.69
2018-10-04T05:34:17.518Z,25.85
2018-10-04T05:36:44.521Z,25.95
2018-10-04T05:39:11.289Z,26.10
2018-10-04T05:41:40.935Z,26.16
2018-10-04T05:44:07.580Z,26.17
2018-10-04T05:46:34.336Z,26.28
2018-10-04T05:49:01.149Z,26.30
2018-10-04T05:51:30.167Z,26.43
2018-10-04T05:53:57.002Z,26.51
2018-10-04T05:56:23.669Z,26.56
2018-10-04T05:58:50.393Z,26.62
2018-10-04T06:01:17.180Z,26.53
2018-10-04T06:03:43.852Z,26.42
2018-10-04T06:06:10.580Z,26.28
2018-10-04T06:08:40.233Z,26.26
2018-10-04T06:11:06.889Z,26.18
2018-10-04T06:13:33.576Z,26.19
2018-10-04T06:16:00.257Z,26.24
2018-10-04T06:18:26.932Z,26.44
2018-10-04T06:20:53.699Z,26.44
2018-10-04T06:23:20.447Z,26.62
2018-10-04T06:25:47.181Z,26.74
2018-10-04T06:28:13.921Z,26.79
2018-10-04T06:30:40.632Z,26.90
2018-10-04T06:33:07.445Z,26.94
2018-10-04T06:35:34.152Z,26.80
2018-10-04T06:38:00.905Z,26.75
2018-10-04T06:40:27.616Z,26.61
2018-10-04T06:42:54.235Z,26.55
2018-10-04T06:45:20.980Z,26.48
2018-10-04T06:47:47.742Z,26.56
2018-10-04T06:50:14.543Z,26.60
2018-10-04T06:52:41.234Z,26.64
2018-10-04T06:55:08.099Z,26.70
2018-10-04T06:57:34.760Z,26.81
2018-10-04T07:00:03.682Z,26.71
2018-10-04T07:02:28.131Z,26.73
2018-10-04T07:04:54.790Z,26.77
2018-10-04T07:07:22.633Z,26.71
2018-10-04T07:09:49.323Z,26.80
2018-10-04T07:12:16.022Z,26.87
2018-10-04T07:14:42.635Z,27.07
2018-10-04T07:17:09.333Z,27.00
2018-10-04T07:19:36.069Z,26.91
2018-10-04T07:22:02.726Z,26.90
2018-10-04T07:24:29.413Z,26.89
2018-10-04T07:26:56.134Z,26.99
2018-10-04T07:29:22.726Z,27.10
2018-10-04T07:31:49.582Z,27.15
2018-10-04T07:34:16.218Z,27.12
2018-10-04T07:36:42.930Z,27.07
2018-10-04T07:39:09.585Z,26.98
2018-10-04T07:41:36.342Z,27.17
2018-10-04T07:44:03.234Z,27.28
2018-10-04T07:46:29.935Z,27.21
2018-10-04T07:48:56.608Z,26.91
2018-10-04T07:51:23.282Z,27.01
2018-10-04T07:53:52.716Z,27.24
2018-10-04T07:56:19.468Z,27.32
2018-10-04T07:58:47.490Z,27.28
2018-10-04T08:01:12.931Z,27.19
2018-10-04T08:03:39.619Z,26.98
2018-10-04T08:06:06.387Z,26.96
2018-10-04T08:08:33.008Z,27.06
2018-10-04T08:10:59.727Z,26.93
2018-10-04T08:13:26.406Z,26.89
2018-10-04T08:15:53.173Z,26.62
2018-10-04T08:18:19.879Z,26.67
2018-10-04T08:20:46.571Z,26.81
2018-10-04T08:23:15.917Z,27.00
2018-10-04T08:25:42.561Z,27.20
2018-10-04T08:28:09.231Z,27.54
2018-10-04T08:30:35.955Z,27.27
2018-10-04T08:33:02.721Z,27.18
2018-10-04T08:35:29.428Z,26.99
2018-10-04T08:37:56.082Z,27.21
2018-10-04T08:40:22.911Z,27.23
2018-10-04T08:42:49.604Z,27.39
2018-10-04T08:45:16.305Z,27.17
2018-10-04T08:47:43.048Z,27.35
2018-10-04T08:50:09.802Z,27.50
2018-10-04T08:52:36.538Z,27.57
2018-10-04T08:55:03.241Z,27.47
2018-10-04T08:57:29.882Z,27.04
2018-10-04T08:59:56.522Z,27.08
2018-10-04T09:02:23.316Z,27.29
2018-10-04T09:04:50.103Z,27.38
2018-10-04T09:07:16.946Z,27.38
2018-10-04T09:09:43.518Z,26.98
2018-10-04T09:12:10.182Z,26.76
2018-10-04T09:14:36.895Z,26.58
2018-10-04T09:17:03.689Z,26.30
2018-10-04T09:19:30.332Z,26.36
2018-10-04T09:21:57.053Z,26.35
2018-10-04T09:24:24.058Z,26.61
2018-10-04T09:26:50.734Z,26.78
2018-10-04T09:29:17.411Z,27.01
2018-10-04T09:31:44.068Z,27.04
2018-10-04T09:34:10.774Z,26.99
2018-10-04T09:36:37.474Z,26.96
2018-10-04T09:39:04.207Z,27.09
2018-10-04T09:41:30.863Z,27.26
2018-10-04T09:43:57.638Z,27.31
2018-10-04T09:46:24.323Z,27.48
2018-10-04T09:48:51.035Z,27.55
2018-10-04T09:51:17.708Z,27.46
2018-10-04T09:53:44.938Z,27.55
2018-10-04T09:56:11.564Z,27.49
2018-10-04T09:58:38.300Z,27.31
2018-10-04T10:01:05.016Z,27.49
2018-10-04T10:03:31.717Z,27.47
2018-10-04T10:05:58.505Z,27.55
2018-10-04T10:08:25.343Z,27.60
2018-10-04T10:10:52.011Z,27.49
2018-10-04T10:13:23.159Z,27.48
2018-10-04T10:15:51.230Z,27.41
2018-10-04T10:18:16.541Z,27.67
2018-10-04T10:20:43.289Z,27.64
2018-10-04T10:23:09.985Z,27.71
2018-10-04T10:25:36.648Z,27.64
2018-10-04T10:28:03.310Z,27.82
2018-10-04T10:30:29.982Z,27.79
2018-10-04T10:32:56.764Z,27.69
2018-10-04T10:35:23.415Z,27.52
2018-10-04T10:37:50.087Z,27.31
2018-10-04T10:40:16.910Z,27.08
2018-10-04T10:42:43.426Z,26.80
2018-10-04T10:45:10.106Z,26.52
2018-10-04T10:47:36.797Z,26.30
2018-10-04T10:50:03.505Z,26.22
2018-10-04T10:52:30.141Z,26.29
2018-10-04T10:54:57.947Z,26.07
2018-10-04T10:57:24.716Z,26.02
2018-10-04T10:59:51.413Z,25.99
2018-10-04T11:02:18.112Z,25.81
2018-10-04T11:04:44.809Z,25.75
2018-10-04T11:07:11.473Z,25.77
2018-10-04T11:09:38.132Z,25.65
2018-10-04T11:12:04.890Z,25.70
2018-10-04T11:14:31.564Z,25.77
2018-10-04T11:16:58.350Z,25.65
2018-10-04T11:19:24.952Z,25.85
2018-10-04T11:21:54.581Z,25.78
2018-10-04T11:24:21.309Z,25.39
2018-10-04T11:26:48.045Z,25.33
2018-10-04T11:29:16.178Z,25.19
2018-10-04T11:31:41.403Z,25.36
2018-10-04T11:34:08.078Z,25.39
2018-10-04T11:36:34.828Z,25.39
2018-10-04T11:39:01.558Z,25.41
2018-10-04T11:41:32.406Z,25.37
2018-10-04T11:43:59.397Z,25.19
2018-10-04T11:46:26.006Z,25.30
2018-10-04T11:48:52.787Z,25.47
2018-10-04T11:51:20.019Z,25.48
2018-10-04T11:53:46.759Z,25.31
2018-10-04T11:56:14.447Z,25.35
2018-10-04T11:58:41.196Z,25.28
2018-10-04T12:01:07.961Z,25.27
2018-10-04T12:03:34.665Z,25.03
2018-10-04T12:06:01.331Z,25.11
2018-10-04T12:08:28.084Z,25.06
2018-10-04T12:10:54.911Z,25.15
2018-10-04T12:13:21.868Z,24.92
2018-10-04T12:15:48.515Z,25.33
2018-10-04T12:18:15.143Z,25.06
2018-10-04T12:20:41.878Z,25.03
2018-10-04T12:23:08.528Z,25.11
2018-10-04T12:25:35.236Z,25.02
2018-10-04T12:28:01.897Z,24.88
2018-10-04T12:30:28.554Z,24.94
2018-10-04T12:32:55.242Z,24.95
2018-10-04T12:35:21.925Z,24.94
2018-10-04T12:37:48.648Z,25.09
2018-10-04T12:40:15.313Z,25.02
2018-10-04T12:42:41.940Z,24.88
2018-10-04T12:45:08.707Z,24.97
2018-10-04T12:47:35.360Z,24.98
2018-10-04T12:50:03.067Z,25.09
2018-10-04T12:52:29.925Z,25.22
2018-10-04T12:54:56.562Z,25.19
2018-10-04T12:57:23.281Z,25.21
2018-10-04T12:59:49.913Z,25.26
2018-10-04T13:02:16.577Z,25.17
2018-10-04T13:04:44.328Z,25.19
2018-10-04T13:07:11.228Z,25.18
2018-10-04T13:09:37.895Z,24.96
2018-10-04T13:12:04.581Z,25.34
2018-10-04T13:14:31.344Z,25.49
2018-10-04T13:16:59.303Z,25.61
2018-10-04T13:19:24.695Z,25.69
2018-10-04T13:21:51.394Z,25.78
2018-10-04T13:24:18.048Z,25.77
2018-10-04T13:26:44.729Z,25.82
2018-10-04T13:29:11.452Z,25.93
2018-10-04T13:31:38.208Z,26.02
2018-10-04T13:34:04.938Z,26.03
2018-10-04T13:36:31.586Z,26.03
2018-10-04T13:38:58.265Z,26.13
2018-10-04T13:41:24.922Z,26.09
2018-10-04T13:43:51.620Z,26.17
2018-10-04T13:46:20.002Z,26.32
2018-10-04T13:48:45.259Z,26.32
2018-10-04T13:51:13.959Z,26.41
2018-10-04T13:53:40.617Z,26.41
2018-10-04T13:56:07.338Z,26.31
2018-10-04T13:58:34.247Z,26.35
2018-10-04T14:01:00.919Z,26.31
2018-10-04T14:03:27.653Z,26.22
2018-10-04T14:05:54.366Z,26.25
2018-10-04T14:08:21.056Z,26.24
2018-10-04T14:10:47.697Z,26.21
2018-10-04T14:13:15.836Z,26.29
2018-10-04T14:15:41.092Z,26.25
2018-10-04T14:18:07.793Z,26.17
2018-10-04T14:20:34.457Z,26.12
2018-10-04T14:23:01.225Z,26.14
2018-10-04T14:25:27.870Z,26.17
2018-10-04T14:27:54.508Z,26.11
2018-10-04T14:30:24.062Z,26.20
2018-10-04T14:32:50.789Z,26.13
2018-10-04T14:35:18.562Z,26.11
2018-10-04T14:37:45.201Z,26.09
2018-10-04T14:40:10.664Z,26.08
2018-10-04T14:42:37.311Z,26.06
2018-10-04T14:45:04.042Z,26.07
2018-10-04T14:47:32.217Z,26.09
2018-10-04T14:49:57.657Z,26.02
2018-10-04T14:52:27.322Z,26.04
2018-10-04T14:54:54.028Z,26.01
2018-10-04T14:57:21.632Z,26.00
2018-10-04T14:59:48.269Z,26.00
2018-10-04T15:02:15.318Z,26.06
2018-10-04T15:04:42.101Z,26.04
2018-10-04T15:07:08.750Z,26.15
2018-10-04T15:09:35.539Z,26.17
2018-10-04T15:12:02.214Z,26.04
2018-10-04T15:14:28.855Z,26.04
2018-10-04T15:16:55.590Z,25.96
2018-10-04T15:19:22.554Z,25.91
2018-10-04T15:21:49.297Z,26.02
2018-10-04T15:24:16.035Z,26.04
2018-10-04T15:26:42.790Z,26.06
2018-10-04T15:29:09.457Z,25.95
2018-10-04T15:31:37.296Z,25.85
2018-10-04T15:34:02.810Z,25.89
2018-10-04T15:36:29.549Z,25.82
2018-10-04T15:38:56.188Z,25.98
2018-10-04T15:41:22.917Z,25.95
2018-10-04T15:43:49.588Z,26.02
2018-10-04T15:46:16.268Z,25.87
2018-10-04T15:48:42.945Z,25.84
2018-10-04T15:51:09.712Z,25.75
2018-10-04T15:53:36.331Z,25.75
2018-10-04T15:56:03.038Z,25.89
2018-10-04T15:58:29.802Z,25.74
2018-10-04T16:00:59.332Z,25.69
2018-10-04T16:03:25.979Z,25.64
2018-10-04T16:05:53.891Z,25.58
2018-10-04T16:08:19.258Z,25.49
2018-10-04T16:10:47.176Z,25.47
2018-10-04T16:13:12.628Z,25.44
2018-10-04T16:15:39.271Z,25.42
2018-10-04T16:18:06.001Z,25.41
2018-10-04T16:20:32.701Z,25.42
2018-10-04T16:22:59.391Z,25.37
2018-10-04T16:25:26.117Z,25.45
2018-10-04T16:27:52.904Z,25.36
2018-10-04T16:30:19.551Z,25.31
2018-10-04T16:32:46.212Z,25.28
2018-10-04T16:35:12.934Z,25.26
2018-10-04T16:37:41.011Z,25.25
2018-10-04T16:40:06.387Z,25.22
2018-10-04T16:42:33.040Z,25.20
2018-10-04T16:44:59.776Z,25.18
2018-10-04T16:47:26.468Z,25.17
2018-10-04T16:49:53.220Z,25.15
2018-10-04T16:52:19.960Z,25.13
2018-10-04T16:54:48.050Z,25.12
2018-10-04T16:57:17.204Z,25.12
2018-10-04T16:59:42.803Z,25.12
2018-10-04T17:02:12.465Z,25.09
2018-10-04T17:04:39.166Z,25.08
2018-10-04T17:07:05.802Z,25.06
2018-10-04T17:09:32.419Z,25.05
2018-10-04T17:11:59.065Z,25.04
2018-10-04T17:14:25.915Z,25.02
2018-10-04T17:16:55.405Z,25.04
2018-10-04T17:19:22.045Z,25.10
2018-10-04T17:21:48.740Z,25.15
2018-10-04T17:24:15.384Z,25.09
2018-10-04T17:26:42.153Z,25.08
2018-10-04T17:29:08.806Z,25.07
2018-10-04T17:31:35.450Z,25.15
2018-10-04T17:34:02.166Z,25.09
2018-10-04T17:36:28.855Z,24.91
2018-10-04T17:38:55.597Z,24.89
2018-10-04T17:41:22.272Z,24.88
2018-10-04T17:43:49.099Z,24.85
2018-10-04T17:46:15.845Z,24.82
2018-10-04T17:48:42.483Z,24.81
2018-10-04T17:51:09.277Z,24.79
2018-10-04T17:53:36.094Z,24.78
2018-10-04T17:56:02.707Z,24.78
2018-10-04T17:58:29.404Z,24.73
2018-10-04T18:00:56.055Z,24.72
2018-10-04T18:03:22.702Z,24.68
2018-10-04T18:05:49.343Z,24.68
2018-10-04T18:08:18.750Z,24.68
2018-10-04T18:10:45.435Z,24.62
2018-10-04T18:13:12.234Z,24.62
2018-10-04T18:15:38.875Z,24.62
2018-10-04T18:18:05.544Z,24.61
2018-10-04T18:20:32.351Z,24.56
2018-10-04T18:22:59.062Z,24.58
2018-10-04T18:25:25.866Z,24.57
2018-10-04T18:27:52.610Z,24.54
2018-10-04T18:30:19.381Z,24.49
2018-10-04T18:32:46.120Z,24.50
2018-10-04T18:35:12.813Z,24.50
2018-10-04T18:37:42.164Z,24.52
2018-10-04T18:40:08.850Z,24.49
2018-10-04T18:42:36.845Z,24.43
2018-10-04T18:45:02.127Z,24.44
2018-10-04T18:47:28.863Z,24.46
2018-10-04T18:49:55.550Z,24.45
2018-10-04T18:52:22.333Z,24.41
2018-10-04T18:54:48.989Z,24.51
2018-10-04T18:57:15.645Z,24.50
2018-10-04T18:59:44.786Z,24.43
2018-10-04T19:02:12.832Z,24.37
2018-10-04T19:04:38.237Z,24.42
2018-10-04T19:07:05.909Z,24.43
2018-10-04T19:09:32.621Z,24.35
2018-10-04T19:11:59.329Z,24.38
2018-10-04T19:14:25.970Z,24.33
2018-10-04T19:16:52.729Z,24.32
2018-10-04T19:19:19.392Z,24.34
2018-10-04T19:21:46.118Z,24.34
2018-10-04T19:24:12.720Z,24.26
2018-10-04T19:26:41.628Z,24.27
2018-10-04T19:29:06.149Z,24.29
2018-10-04T19:31:32.756Z,24.20
2018-10-04T19:33:59.436Z,24.26
2018-10-04T19:36:26.085Z,24.24
2018-10-04T19:38:52.722Z,24.23
2018-10-04T19:41:19.371Z,24.20
2018-10-04T19:43:48.769Z,24.19
2018-10-04T19:46:15.426Z,24.10
2018-10-04T19:48:44.052Z,24.14
2018-10-04T19:51:10.863Z,24.17
2018-10-04T19:53:37.597Z,24.18
2018-10-04T19:56:04.323Z,24.11
2018-10-04T19:58:30.986Z,24.02
2018-10-04T20:00:57.624Z,24.11
2018-10-04T20:03:24.402Z,24.13
2018-10-04T20:05:51.244Z,24.08
2018-10-04T20:08:17.904Z,24.08
2018-10-04T20:10:44.538Z,24.03
2018-10-04T20:13:12.151Z,24.01
2018-10-04T20:15:38.801Z,24.01
2018-10-04T20:18:05.450Z,24.01
2018-10-04T20:20:32.106Z,23.97
2018-10-04T20:22:58.856Z,23.98
2018-10-04T20:25:25.494Z,23.95
2018-10-04T20:27:54.949Z,23.94
2018-10-04T20:30:21.633Z,23.87
2018-10-04T20:32:48.650Z,23.91
2018-10-04T20:35:15.290Z,23.87
2018-10-04T20:37:41.979Z,23.86
2018-10-04T20:40:08.676Z,23.87
2018-10-04T20:42:35.341Z,23.81
2018-10-04T20:45:02.099Z,23.85
2018-10-04T20:47:29.569Z,23.79
2018-10-04T20:49:56.333Z,23.79
2018-10-04T20:52:22.950Z,23.77
2018-10-04T20:54:49.593Z,23.77
2018-10-04T20:57:16.273Z,23.74
2018-10-04T20:59:42.926Z,23.75
2018-10-04T21:02:09.704Z,23.70
2018-10-04T21:04:36.380Z,23.71
2018-10-04T21:07:04.359Z,23.70
2018-10-04T21:09:29.695Z,23.64
2018-10-04T21:11:56.525Z,23.65
2018-10-04T21:14:23.211Z,23.67
2018-10-04T21:16:51.201Z,23.64
2018-10-04T21:19:16.551Z,23.65
2018-10-04T21:21:46.039Z,23.60
2018-10-04T21:24:14.950Z,23.58
2018-10-04T21:26:40.404Z,23.58
2018-10-04T21:29:07.115Z,23.57
2018-10-04T21:31:33.919Z,23.54
2018-10-04T21:34:00.683Z,23.53
2018-10-04T21:36:28.665Z,23.50
2018-10-04T21:38:53.960Z,23.47
2018-10-04T21:41:20.627Z,23.45
2018-10-04T21:43:47.337Z,23.47
2018-10-04T21:46:13.977Z,23.47
2018-10-04T21:48:40.684Z,23.45
2018-10-04T21:51:07.382Z,23.44
2018-10-04T21:53:34.019Z,23.41
2018-10-04T21:56:00.719Z,23.40
2018-10-04T21:58:27.520Z,23.40
2018-10-04T22:00:54.168Z,23.41
2018-10-04T22:03:22.200Z,23.35
2018-10-04T22:05:47.477Z,23.36
2018-10-04T22:08:14.171Z,23.34
2018-10-04T22:10:40.856Z,23.36
2018-10-04T22:13:07.551Z,23.31
2018-10-04T22:15:34.232Z,23.30
2018-10-04T22:18:00.979Z,23.29
2018-10-04T22:20:27.691Z,23.26
2018-10-04T22:22:54.429Z,23.25
2018-10-04T22:25:21.200Z,23.26
2018-10-04T22:27:47.905Z,23.27
2018-10-04T22:30:14.597Z,23.22
2018-10-04T22:32:41.319Z,23.25
2018-10-04T22:35:07.959Z,23.17
2018-10-04T22:37:34.653Z,23.17
2018-10-04T22:40:01.341Z,23.16
2018-10-04T22:42:28.039Z,23.16
2018-10-04T22:44:54.676Z,23.17
2018-10-04T22:47:21.366Z,23.11
2018-10-04T22:49:54.728Z,23.10
2018-10-04T22:52:14.698Z,23.10
2018-10-04T22:54:41.393Z,23.13
2018-10-04T22:57:08.045Z,23.05
2018-10-04T22:59:34.745Z,23.09
2018-10-04T23:02:01.455Z,23.06
2018-10-04T23:04:28.148Z,23.02
2018-10-04T23:06:55.972Z,23.03
2018-10-04T23:09:22.939Z,23.04
2018-10-04T23:11:48.305Z,22.99
2018-10-04T23:14:15.005Z,22.98
2018-10-04T23:16:41.716Z,22.99
2018-10-04T23:19:08.442Z,22.95
2018-10-04T23:21:35.077Z,22.97
2018-10-04T23:24:01.876Z,22.96
2018-10-04T23:26:28.523Z,22.95
2018-10-04T23:28:55.325Z,22.95
2018-10-04T23:31:22.025Z,22.93
2018-10-04T23:33:48.683Z,22.92
2018-10-04T23:36:15.388Z,22.89
2018-10-04T23:38:42.013Z,22.88
2018-10-04T23:41:08.683Z,22.84
2018-10-04T23:43:35.337Z,22.86
2018-10-04T23:46:02.075Z,22.86
2018-10-04T23:48:28.776Z,22.87
2018-10-04T23:50:55.451Z,22.84
2018-10-04T23:53:22.072Z,22.86
2018-10-04T23:55:48.727Z,22.83
2018-10-04T23:58:15.367Z,22.79
